Time;durP1;ratioP1;P1;durP2;ratioP2;P2;SDS_P1;SDS_P2;PMS_P1;PMS_P2;Temp;Humidity;BMP_temperature;BMP_pressure;BME280_temperature;BME280_humidity;BME280_pressure;Samples;Min_cycle;Max_cycle;Signal;HPM_P1;HPM_P2
2023/04/30 00:00:12;;;;;;;0.80;0.50;;;5.20;99.90;;;;;;5130091;27;20077;-70
2023/04/30 00:02:38;;;;;;;0.95;0.50;;;5.10;99.90;;;;;;5130245;27;20103;-70
2023/04/30 00:05:04;;;;;;;0.95;0.40;;;5.10;99.90;;;;;;5129813;27;20102;-72
2023/04/30 00:07:31;;;;;;;1.52;0.75;;;5.10;99.90;;;;;;5113325;28;20062;-73
2023/04/30 00:09:56;;;;;;;1.73;0.70;;;5.10;99.90;;;;;;5129759;27;20035;-72
2023/04/30 00:12:22;;;;;;;1.52;0.80;;;5.00;99.90;;;;;;5112956;28;20047;-73
2023/04/30 00:14:48;;;;;;;0.57;0.47;;;4.90;99.90;;;;;;5109584;28;20086;-73
2023/04/30 00:17:15;;;;;;;2.35;0.77;;;4.90;99.90;;;;;;5146847;27;20040;-72
2023/04/30 00:19:41;;;;;;;0.60;0.60;;;4.80;99.90;;;;;;5150628;27;20043;-72
2023/04/30 00:22:07;;;;;;;1.00;0.60;;;4.70;99.90;;;;;;5150528;27;20054;-72
2023/04/30 00:24:33;;;;;;;2.22;0.70;;;4.70;99.90;;;;;;5127963;28;20086;-72
2023/04/30 00:26:59;;;;;;;0.88;0.50;;;4.70;99.90;;;;;;5129661;27;20046;-71
2023/04/30 00:29:25;;;;;;;0.73;0.40;;;4.70;99.90;;;;;;5117240;27;20051;-73
2023/04/30 00:31:50;;;;;;;0.80;0.50;;;4.70;99.90;;;;;;5137473;27;20039;-72
2023/04/30 00:34:16;;;;;;;1.30;0.50;;;4.60;99.90;;;;;;5131101;28;20425;-72
2023/04/30 00:36:42;;;;;;;0.90;0.50;;;4.60;99.90;;;;;;5122945;27;20539;-71
2023/04/30 00:39:08;;;;;;;0.90;0.63;;;4.50;99.90;;;;;;5147511;27;20063;-72
2023/04/30 00:41:38;;;;;;;1.27;0.70;;;4.60;99.90;;;;;;5133999;27;20035;-72
2023/04/30 00:44:05;;;;;;;1.10;0.70;;;4.60;99.90;;;;;;5109056;28;20066;-72
2023/04/30 00:46:31;;;;;;;1.27;0.82;;;4.60;99.90;;;;;;5118541;27;20401;-72
2023/04/30 00:48:56;;;;;;;3.92;1.40;;;4.60;99.90;;;;;;5149922;27;20064;-72
2023/04/30 00:51:23;;;;;;;1.92;1.17;;;4.60;99.90;;;;;;5115388;28;20056;-72
2023/04/30 00:53:48;;;;;;;1.48;0.98;;;4.60;99.90;;;;;;5129610;28;20051;-72
2023/04/30 00:56:17;;;;;;;1.13;0.88;;;4.60;99.90;;;;;;5133203;27;20071;-72
2023/04/30 00:58:44;;;;;;;1.80;0.93;;;4.50;99.90;;;;;;5140351;27;20043;-72
2023/04/30 01:01:10;;;;;;;;;;;4.50;99.90;;;;;;5151841;27;20127;-72
2023/04/30 01:03:35;;;;;;;1.80;0.70;;;4.50;99.90;;;;;;5121032;27;19923;-72
2023/04/30 01:06:04;;;;;;;1.35;0.80;;;4.40;99.90;;;;;;5097395;27;20035;-72
2023/04/30 01:08:31;;;;;;;0.50;0.50;;;4.40;99.90;;;;;;5144399;27;20056;-73
2023/04/30 01:10:59;;;;;;;;;;;4.40;99.90;;;;;;5135170;27;20360;-72
2023/04/30 01:13:38;;;;;;;0.70;0.60;;;4.40;99.90;;;;;;5122296;27;19916;-72
2023/04/30 01:16:27;;;;;;;0.60;0.50;;;4.40;99.90;;;;;;5114253;27;20375;-72
2023/04/30 01:19:39;;;;;;;0.57;0.50;;;4.40;99.90;;;;;;5119338;27;20082;-72
2023/04/30 01:22:26;;;;;;;1.30;0.75;;;4.30;99.90;;;;;;5112109;27;20075;-73
2023/04/30 01:25:02;;;;;;;1.52;0.60;;;4.40;99.90;;;;;;5086741;27;20039;-73
2023/04/30 01:27:58;;;;;;;0.50;0.50;;;4.30;99.90;;;;;;5127580;27;20349;-72
2023/04/30 01:30:24;;;;;;;0.85;0.75;;;4.30;99.90;;;;;;5121399;27;20482;-72
2023/04/30 01:32:50;;;;;;;;;;;4.30;99.90;;;;;;5129876;27;20130;-73
2023/04/30 01:35:16;;;;;;;0.90;0.60;;;4.20;99.90;;;;;;5129194;27;20393;-72
2023/04/30 01:38:20;;;;;;;0.70;0.45;;;4.20;99.90;;;;;;5132969;27;20138;-73
2023/04/30 01:41:09;;;;;;;0.43;0.40;;;4.10;99.90;;;;;;5133841;27;20509;-73
2023/04/30 01:43:48;;;;;;;1.05;0.52;;;4.20;99.90;;;;;;5131253;27;20058;-73
2023/04/30 01:46:17;;;;;;;0.70;0.50;;;4.10;99.90;;;;;;5123666;27;20459;-72
2023/04/30 01:49:10;;;;;;;0.80;0.50;;;4.10;99.90;;;;;;5122007;27;20142;-72
2023/04/30 01:51:46;;;;;;;1.38;0.50;;;4.20;99.90;;;;;;5121223;27;20502;-72
2023/04/30 01:54:29;;;;;;;0.85;0.50;;;4.20;99.90;;;;;;5131770;27;20054;-72
2023/04/30 01:57:17;;;;;;;0.57;0.40;;;4.30;99.90;;;;;;5120268;27;20170;-72
2023/04/30 01:59:43;;;;;;;0.60;0.57;;;4.30;99.90;;;;;;5104011;27;20043;-72
2023/04/30 02:02:09;;;;;;;0.70;0.55;;;4.40;99.90;;;;;;5142408;27;20049;-72
2023/04/30 02:04:35;;;;;;;0.70;0.50;;;4.50;99.90;;;;;;5116454;27;20043;-72
2023/04/30 02:07:01;;;;;;;0.57;0.40;;;4.50;99.90;;;;;;5132558;27;20536;-72
2023/04/30 02:09:26;;;;;;;0.68;0.40;;;4.60;99.90;;;;;;5116384;27;20035;-72
2023/04/30 02:11:52;;;;;;;0.43;0.40;;;4.70;99.90;;;;;;5115298;27;20125;-72
2023/04/30 02:14:18;;;;;;;0.60;0.55;;;4.70;99.90;;;;;;5126844;27;20089;-72
2023/04/30 02:16:43;;;;;;;0.73;0.40;;;4.80;99.90;;;;;;5127697;27;20065;-73
2023/04/30 02:19:10;;;;;;;0.65;0.50;;;4.90;99.90;;;;;;5140819;27;20043;-73
2023/04/30 02:21:35;;;;;;;0.47;0.30;;;4.90;99.90;;;;;;5139476;27;20129;-73
2023/04/30 02:24:01;;;;;;;0.50;0.40;;;5.00;99.90;;;;;;5132030;27;20420;-73
2023/04/30 02:26:27;;;;;;;0.30;0.30;;;5.10;99.90;;;;;;5113647;27;20038;-72
2023/04/30 02:28:52;;;;;;;0.57;0.40;;;5.10;99.90;;;;;;5142696;27;20478;-72
2023/04/30 02:31:18;;;;;;;1.05;0.60;;;5.10;99.90;;;;;;5152339;27;20066;-72
2023/04/30 02:33:44;;;;;;;0.60;0.50;;;5.10;99.90;;;;;;5150662;27;20051;-72
2023/04/30 02:36:09;;;;;;;1.30;0.50;;;5.20;99.90;;;;;;5152250;27;20085;-72
2023/04/30 02:38:35;;;;;;;0.68;0.52;;;5.10;99.90;;;;;;5143598;27;20103;-72
2023/04/30 02:41:02;;;;;;;0.45;0.40;;;5.20;99.90;;;;;;5152003;27;20383;-72
2023/04/30 02:43:27;;;;;;;0.80;0.60;;;5.20;99.90;;;;;;5137160;27;20093;-72
2023/04/30 02:45:53;;;;;;;0.68;0.60;;;5.20;99.90;;;;;;5102567;28;20488;-72
2023/04/30 02:48:19;;;;;;;1.23;0.70;;;5.20;99.90;;;;;;5129371;27;20095;-72
2023/04/30 02:50:45;;;;;;;0.60;0.52;;;5.20;99.90;;;;;;5131221;27;20135;-72
2023/04/30 02:53:10;;;;;;;1.10;0.50;;;5.20;99.90;;;;;;5141249;27;20052;-72
2023/04/30 02:55:36;;;;;;;0.55;0.38;;;5.20;99.90;;;;;;5131644;27;20347;-72
2023/04/30 02:58:02;;;;;;;1.20;0.52;;;5.20;99.90;;;;;;5135691;27;20045;-72
2023/04/30 03:00:27;;;;;;;0.98;0.40;;;5.20;99.90;;;;;;5149434;27;20061;-72
2023/04/30 03:02:53;;;;;;;0.60;0.43;;;5.20;99.90;;;;;;5127142;27;20117;-72
2023/04/30 03:05:19;;;;;;;0.73;0.60;;;5.30;99.90;;;;;;5134554;27;20402;-72
2023/04/30 03:07:45;;;;;;;0.80;0.60;;;5.30;99.90;;;;;;5133959;27;20099;-72
2023/04/30 03:10:10;;;;;;;0.80;0.50;;;5.30;99.90;;;;;;5122536;27;20039;-72
2023/04/30 03:12:36;;;;;;;0.57;0.50;;;5.40;99.90;;;;;;5122796;27;20378;-72
2023/04/30 03:15:02;;;;;;;0.50;0.40;;;5.40;99.90;;;;;;5132001;27;20451;-73
2023/04/30 03:17:28;;;;;;;0.65;0.50;;;5.40;99.90;;;;;;5130187;27;20081;-72
2023/04/30 03:19:53;;;;;;;0.43;0.40;;;5.40;99.90;;;;;;5131824;27;20735;-72
2023/04/30 03:22:22;;;;;;;0.52;0.40;;;5.50;99.90;;;;;;5116155;27;20047;-72
2023/04/30 03:24:48;;;;;;;0.40;0.32;;;5.50;99.90;;;;;;5125697;27;20047;-72
2023/04/30 03:27:15;;;;;;;0.40;0.32;;;5.50;99.90;;;;;;5112101;27;20045;-71
2023/04/30 03:29:41;;;;;;;0.55;0.30;;;5.50;99.90;;;;;;5129556;27;20050;-72
2023/04/30 03:32:07;;;;;;;0.47;0.30;;;5.50;99.90;;;;;;5129106;27;20043;-72
2023/04/30 03:34:33;;;;;;;0.70;0.43;;;5.60;99.90;;;;;;5134828;27;20122;-72
2023/04/30 03:37:00;;;;;;;0.40;0.40;;;5.60;99.90;;;;;;5111150;27;20135;-72
2023/04/30 03:39:26;;;;;;;0.38;0.30;;;5.50;99.90;;;;;;5112989;27;20496;-72
2023/04/30 03:41:52;;;;;;;0.43;0.30;;;5.50;99.90;;;;;;5127924;27;20055;-72
2023/04/30 03:44:17;;;;;;;0.20;0.20;;;5.50;99.90;;;;;;5113507;27;20039;-72
2023/04/30 03:46:43;;;;;;;0.20;0.20;;;5.50;99.90;;;;;;5130178;27;20182;-72
2023/04/30 03:49:10;;;;;;;0.25;0.20;;;5.50;99.90;;;;;;5130301;27;20474;-73
2023/04/30 03:51:38;;;;;;;0.40;0.30;;;5.40;99.90;;;;;;5136124;27;20042;-73
2023/04/30 03:54:07;;;;;;;0.60;0.30;;;5.40;99.90;;;;;;5120172;27;20503;-72
2023/04/30 03:56:34;;;;;;;0.50;0.50;;;5.30;99.90;;;;;;5133598;27;20038;-72
2023/04/30 03:59:00;;;;;;;0.70;0.30;;;5.20;99.90;;;;;;5149385;27;20057;-72
2023/04/30 04:01:27;;;;;;;0.43;0.30;;;5.20;99.90;;;;;;5140595;27;20486;-72
2023/04/30 04:03:53;;;;;;;1.65;0.47;;;5.10;99.90;;;;;;5112379;27;20550;-72
2023/04/30 04:06:19;;;;;;;0.63;0.40;;;5.10;99.90;;;;;;5114230;27;20040;-72
2023/04/30 04:08:45;;;;;;;0.98;0.63;;;5.00;99.90;;;;;;5125987;27;20070;-73
2023/04/30 04:11:11;;;;;;;1.60;0.60;;;5.00;99.90;;;;;;5135561;27;20071;-73
2023/04/30 04:13:37;;;;;;;1.65;0.40;;;5.00;99.90;;;;;;5125494;28;20040;-73
2023/04/30 04:16:03;;;;;;;0.95;0.38;;;4.90;99.90;;;;;;5116292;27;20039;-73
2023/04/30 04:18:29;;;;;;;0.45;0.17;;;4.90;99.90;;;;;;5137536;27;20048;-73
2023/04/30 04:20:55;;;;;;;0.43;0.30;;;4.80;99.90;;;;;;5131421;27;20493;-73
2023/04/30 04:23:21;;;;;;;0.82;0.55;;;4.90;99.90;;;;;;5114529;27;20039;-73
2023/04/30 04:25:48;;;;;;;;;;;4.90;99.90;;;;;;5127179;27;20039;-73
2023/04/30 04:28:15;;;;;;;0.90;0.40;;;4.80;99.90;;;;;;5114873;27;19979;-73
2023/04/30 04:30:42;;;;;;;0.80;0.40;;;4.80;99.90;;;;;;5114356;27;20044;-73
2023/04/30 04:33:08;;;;;;;0.30;0.30;;;4.80;99.90;;;;;;5116260;27;20035;-73
2023/04/30 04:35:33;;;;;;;0.75;0.30;;;4.70;99.90;;;;;;5118590;27;20066;-73
2023/04/30 04:38:00;;;;;;;0.60;0.30;;;4.70;99.90;;;;;;5113434;27;20039;-73
2023/04/30 04:40:26;;;;;;;1.45;0.40;;;4.70;99.90;;;;;;5129281;27;20042;-73
2023/04/30 04:42:51;;;;;;;0.70;0.38;;;4.70;99.90;;;;;;5141097;27;20495;-72
2023/04/30 04:45:19;;;;;;;0.98;0.50;;;4.70;99.90;;;;;;5116996;27;20087;-74
2023/04/30 04:47:45;;;;;;;2.42;0.50;;;4.70;99.90;;;;;;5116092;27;20063;-72
2023/04/30 04:50:12;;;;;;;0.40;0.40;;;4.70;99.90;;;;;;5105824;27;20073;-72
2023/04/30 04:52:38;;;;;;;;;;;4.70;99.90;;;;;;5129883;27;20061;-73
2023/04/30 04:55:04;;;;;;;0.40;0.20;;;4.80;99.90;;;;;;5144291;27;19926;-72
2023/04/30 04:57:30;;;;;;;0.47;0.30;;;4.90;99.90;;;;;;5123875;27;20046;-72
2023/04/30 04:59:56;;;;;;;0.30;0.30;;;4.90;99.90;;;;;;5133734;27;20047;-72
2023/04/30 05:02:22;;;;;;;0.52;0.40;;;5.10;99.90;;;;;;5121601;27;20643;-72
2023/04/30 05:04:49;;;;;;;0.38;0.30;;;5.20;99.90;;;;;;5103302;27;20043;-69
2023/04/30 05:07:18;;;;;;;0.85;0.30;;;5.40;99.90;;;;;;5132874;27;20035;-69
2023/04/30 05:09:45;;;;;;;0.20;0.20;;;5.50;99.90;;;;;;5124222;27;20119;-69
2023/04/30 05:12:12;;;;;;;1.02;0.38;;;5.60;99.90;;;;;;5123110;27;20031;-69
2023/04/30 05:14:38;;;;;;;2.15;1.10;;;5.80;99.90;;;;;;5102809;27;20035;-69
2023/04/30 05:17:04;;;;;;;4.25;1.50;;;5.90;99.90;;;;;;5119792;27;20467;-69
2023/04/30 05:19:29;;;;;;;2.55;1.35;;;6.10;99.90;;;;;;5105953;27;20493;-69
2023/04/30 05:21:55;;;;;;;3.83;1.50;;;6.20;99.90;;;;;;5119319;27;20398;-69
2023/04/30 05:24:21;;;;;;;1.55;0.98;;;6.30;99.90;;;;;;5122139;27;20043;-69
2023/04/30 05:26:46;;;;;;;2.42;1.00;;;6.50;99.90;;;;;;5141853;27;20031;-69
2023/04/30 05:29:12;;;;;;;1.08;0.80;;;6.60;99.90;;;;;;5113327;27;20059;-69
2023/04/30 05:31:38;;;;;;;1.83;0.88;;;6.70;99.90;;;;;;5131923;27;20091;-69
2023/04/30 05:34:04;;;;;;;1.65;0.80;;;6.80;99.90;;;;;;5116246;27;20040;-69
2023/04/30 05:36:30;;;;;;;1.90;0.82;;;7.00;99.90;;;;;;5120355;27;20042;-69
2023/04/30 05:38:56;;;;;;;2.92;1.20;;;7.10;99.90;;;;;;5100862;27;20070;-69
2023/04/30 05:41:22;;;;;;;1.98;1.30;;;7.20;99.90;;;;;;5124352;27;20078;-69
2023/04/30 05:43:48;;;;;;;3.40;1.50;;;7.30;99.90;;;;;;5113844;27;20043;-71
2023/04/30 05:46:14;;;;;;;2.33;1.15;;;7.70;99.90;;;;;;5128463;27;20402;-69
2023/04/30 05:48:39;;;;;;;3.63;1.30;;;8.00;99.90;;;;;;5124853;27;20487;-69
2023/04/30 05:51:05;;;;;;;4.85;1.85;;;8.00;99.90;;;;;;5121125;27;20039;-69
2023/04/30 05:53:31;;;;;;;3.45;1.77;;;7.90;99.90;;;;;;5118017;27;20039;-70
2023/04/30 05:55:57;;;;;;;6.25;1.77;;;7.90;99.90;;;;;;5097104;27;20491;-71
2023/04/30 05:58:24;;;;;;;3.03;1.50;;;7.90;99.90;;;;;;5127071;27;20047;-71
2023/04/30 06:00:50;;;;;;;4.28;1.83;;;7.80;99.90;;;;;;5110682;27;20397;-71
2023/04/30 06:03:18;;;;;;;4.13;1.50;;;7.80;99.90;;;;;;5139781;27;20110;-71
2023/04/30 06:05:44;;;;;;;1.83;0.93;;;7.80;99.90;;;;;;5129922;27;20039;-70
2023/04/30 06:08:10;;;;;;;3.17;1.27;;;7.90;99.90;;;;;;5134718;27;20035;-71
2023/04/30 06:10:36;;;;;;;2.67;1.40;;;7.90;99.90;;;;;;5122090;27;20510;-70
2023/04/30 06:13:02;;;;;;;6.20;2.15;;;8.00;99.90;;;;;;5130864;27;20047;-70
2023/04/30 06:15:28;;;;;;;4.82;1.55;;;8.00;99.90;;;;;;5119437;27;20494;-69
2023/04/30 06:17:54;;;;;;;6.15;1.85;;;8.00;99.90;;;;;;5130618;27;20046;-69
2023/04/30 06:20:19;;;;;;;5.30;1.60;;;8.00;99.90;;;;;;5125188;27;20042;-69
2023/04/30 06:22:45;;;;;;;2.45;1.42;;;8.20;99.90;;;;;;5124888;27;20568;-70
2023/04/30 06:25:11;;;;;;;1.65;1.05;;;8.40;99.90;;;;;;5116504;27;20118;-70
2023/04/30 06:27:37;;;;;;;2.75;1.27;;;8.70;99.90;;;;;;5132387;27;20034;-70
2023/04/30 06:30:03;;;;;;;1.92;1.20;;;9.20;99.90;;;;;;5133602;27;20061;-69
2023/04/30 06:32:28;;;;;;;4.32;1.30;;;9.40;99.90;;;;;;5134927;27;20035;-69
2023/04/30 06:34:54;;;;;;;5.00;1.48;;;9.50;99.90;;;;;;5124500;27;20043;-69
2023/04/30 06:37:20;;;;;;;2.85;1.42;;;9.50;99.90;;;;;;5135571;27;20039;-70
2023/04/30 06:39:46;;;;;;;3.53;1.33;;;9.50;99.90;;;;;;5135937;27;20519;-69
2023/04/30 06:42:11;;;;;;;4.43;1.20;;;9.50;99.90;;;;;;5131674;27;20038;-69
2023/04/30 06:44:37;;;;;;;6.57;1.75;;;9.60;99.90;;;;;;5136708;27;20051;-69
2023/04/30 06:47:03;;;;;;;3.78;1.23;;;9.70;99.90;;;;;;5141208;27;20061;-69
2023/04/30 06:49:29;;;;;;;3.92;1.25;;;9.80;99.90;;;;;;5112790;27;20105;-73
2023/04/30 06:51:57;;;;;;;3.33;1.02;;;9.80;99.90;;;;;;5144140;27;20397;-73
2023/04/30 06:54:25;;;;;;;3.28;1.50;;;9.90;99.90;;;;;;5114849;27;20050;-72
2023/04/30 06:56:51;;;;;;;4.28;1.45;;;9.80;99.90;;;;;;5138247;27;20042;-69
2023/04/30 06:59:17;;;;;;;5.78;1.30;;;9.70;99.90;;;;;;5137553;27;20044;-69
2023/04/30 07:01:43;;;;;;;4.18;1.20;;;9.70;91.10;;;;;;5107488;27;20043;-69
2023/04/30 07:04:08;;;;;;;3.25;1.15;;;9.60;86.90;;;;;;5130219;27;20047;-69
2023/04/30 07:06:34;;;;;;;5.43;1.42;;;9.60;44.10;;;;;;5118259;27;20483;-69
2023/04/30 07:09:00;;;;;;;5.43;1.42;;;9.60;76.80;;;;;;5129857;27;20035;-73
2023/04/30 07:11:27;;;;;;;3.53;1.40;;;9.60;85.10;;;;;;5098024;27;20537;-73
2023/04/30 07:13:52;;;;;;;4.63;1.67;;;9.70;41.30;;;;;;5110146;27;20054;-73
2023/04/30 07:16:18;;;;;;;2.78;1.20;;;9.70;24.50;;;;;;5128493;27;20039;-73
2023/04/30 07:18:47;;;;;;;5.80;1.60;;;9.70;50.60;;;;;;5125420;27;20066;-72
2023/04/30 07:21:13;;;;;;;5.70;2.08;;;9.60;13.10;;;;;;5116254;27;20058;-73
2023/04/30 07:23:39;;;;;;;5.10;2.20;;;9.60;10.80;;;;;;5122207;27;20035;-73
2023/04/30 07:26:05;;;;;;;5.53;2.28;;;9.60;9.00;;;;;;5128660;27;20035;-72
2023/04/30 07:28:30;;;;;;;4.15;1.85;;;9.70;27.80;;;;;;5123011;27;20394;-72
2023/04/30 07:30:56;;;;;;;2.92;1.30;;;10.10;84.70;;;;;;5096108;28;20042;-72
2023/04/30 07:33:22;;;;;;;3.65;1.60;;;10.80;52.10;;;;;;5103372;27;20039;-73
2023/04/30 07:35:47;;;;;;;6.03;1.60;;;11.20;1.00;;;;;;5104876;27;20428;-72
2023/04/30 07:38:13;;;;;;;2.28;1.60;;;11.30;1.00;;;;;;5097941;27;20047;-72
2023/04/30 07:40:39;;;;;;;3.63;1.42;;;11.60;1.00;;;;;;5115627;27;20046;-72
2023/04/30 07:43:05;;;;;;;2.28;1.30;;;11.80;1.00;;;;;;5122620;27;20054;-73
2023/04/30 07:45:32;;;;;;;3.50;1.30;;;12.00;1.00;;;;;;5105132;27;20143;-72
2023/04/30 07:47:58;;;;;;;3.53;1.73;;;12.20;1.00;;;;;;5131158;27;20054;-72
2023/04/30 07:50:24;;;;;;;3.05;1.45;;;11.80;1.00;;;;;;5118041;27;20035;-73
2023/04/30 07:52:49;;;;;;;3.45;1.40;;;11.50;99.90;;;;;;5118383;27;20071;-72
2023/04/30 07:55:15;;;;;;;2.92;1.38;;;11.50;1.00;;;;;;5121989;27;20043;-72
2023/04/30 07:57:41;;;;;;;2.40;1.40;;;11.40;1.00;;;;;;5128233;27;20080;-72
2023/04/30 08:00:07;;;;;;;3.67;1.35;;;11.20;1.00;;;;;;5113970;27;20036;-72
2023/04/30 08:02:33;;;;;;;5.28;1.55;;;11.40;1.00;;;;;;5122191;27;20427;-72
2023/04/30 08:04:59;;;;;;;5.63;1.70;;;11.20;1.00;;;;;;5132262;27;20058;-72
2023/04/30 08:07:24;;;;;;;5.28;1.60;;;11.20;1.00;;;;;;5117762;27;20044;-72
2023/04/30 08:09:50;;;;;;;4.13;1.48;;;11.20;1.00;;;;;;5128576;27;20434;-71
2023/04/30 08:12:17;;;;;;;4.35;1.67;;;11.10;1.00;;;;;;5115752;27;20138;-72
2023/04/30 08:14:43;;;;;;;4.63;1.67;;;11.30;1.00;;;;;;5133188;27;20083;-72
2023/04/30 08:17:08;;;;;;;6.43;1.70;;;11.40;99.90;;;;;;5122535;27;20104;-72
2023/04/30 08:19:34;;;;;;;5.93;1.35;;;11.50;1.00;;;;;;5131500;27;20039;-72
2023/04/30 08:22:00;;;;;;;5.60;1.67;;;11.60;1.00;;;;;;5118174;27;20062;-72
2023/04/30 08:24:25;;;;;;;5.40;1.50;;;11.60;99.90;;;;;;5138961;27;20049;-72
2023/04/30 08:26:51;;;;;;;4.55;1.52;;;11.70;99.90;;;;;;5129621;27;20390;-72
2023/04/30 08:29:17;;;;;;;5.13;1.50;;;11.80;99.90;;;;;;5118387;27;20041;-72
2023/04/30 08:31:43;;;;;;;6.22;1.60;;;12.00;1.00;;;;;;5097551;27;20172;-71
2023/04/30 08:34:08;;;;;;;3.38;1.30;;;12.00;99.90;;;;;;5116380;28;20127;-71
2023/04/30 08:36:34;;;;;;;1.80;1.05;;;12.40;99.90;;;;;;5133842;27;20043;-71
2023/04/30 08:39:01;;;;;;;2.35;1.23;;;12.70;99.90;;;;;;5127303;27;20043;-69
2023/04/30 08:41:32;;;;;;;3.67;1.40;;;13.00;99.90;;;;;;5135832;27;20038;-69
2023/04/30 08:44:01;;;;;;;3.97;1.30;;;13.50;99.90;;;;;;5117580;27;20363;-68
2023/04/30 08:46:30;;;;;;;5.40;1.75;;;13.90;99.90;;;;;;5115636;27;20055;-68
2023/04/30 08:48:56;;;;;;;4.32;1.50;;;13.70;99.90;;;;;;5118853;28;20046;-68
2023/04/30 08:51:24;;;;;;;3.00;1.40;;;13.50;99.90;;;;;;5135789;27;20117;-68
2023/04/30 08:53:51;;;;;;;3.95;1.30;;;13.60;99.90;;;;;;5130071;27;20038;-67
2023/04/30 08:56:17;;;;;;;2.35;1.08;;;13.70;99.90;;;;;;5118105;27;20078;-69
2023/04/30 08:58:43;;;;;;;2.92;1.20;;;13.70;99.90;;;;;;5147972;27;20078;-67
2023/04/30 09:01:09;;;;;;;4.85;1.38;;;13.60;99.90;;;;;;5151344;27;20038;-67
2023/04/30 09:03:35;;;;;;;5.82;1.30;;;13.70;99.90;;;;;;5136709;27;20052;-67
2023/04/30 09:06:01;;;;;;;2.80;1.45;;;13.60;99.90;;;;;;5149900;27;20118;-67
2023/04/30 09:08:49;;;;;;;5.97;1.85;;;13.50;96.10;;;;;;5148872;27;20114;-71
2023/04/30 09:11:22;;;;;;;3.15;1.20;;;13.30;97.10;;;;;;5134314;27;20047;-71
2023/04/30 09:13:51;;;;;;;4.25;1.27;;;13.40;99.90;;;;;;5128279;27;20043;-71
2023/04/30 09:16:17;;;;;;;2.88;1.10;;;13.50;99.90;;;;;;5129675;27;20121;-72
2023/04/30 09:18:43;;;;;;;2.35;0.93;;;13.50;94.20;;;;;;5146386;27;20042;-72
2023/04/30 09:21:09;;;;;;;2.67;1.38;;;13.60;79.00;;;;;;5154349;27;20050;-72
2023/04/30 09:23:35;;;;;;;4.07;1.55;;;13.70;60.70;;;;;;5147895;27;20115;-72
2023/04/30 09:26:01;;;;;;;3.53;1.30;;;13.70;64.90;;;;;;5116143;27;20043;-71
2023/04/30 09:28:27;;;;;;;2.53;1.10;;;13.80;53.90;;;;;;5146441;27;20049;-71
2023/04/30 09:30:55;;;;;;;3.17;1.15;;;14.10;95.50;;;;;;5153685;27;20557;-72
2023/04/30 09:33:21;;;;;;;2.58;1.17;;;14.50;66.30;;;;;;5151473;27;20085;-72
2023/04/30 09:35:48;;;;;;;3.35;1.30;;;14.80;54.00;;;;;;5137078;27;20085;-72
2023/04/30 09:38:28;;;;;;;4.55;1.40;;;14.90;1.00;;;;;;5143437;27;20047;-72
2023/04/30 09:40:54;;;;;;;2.88;1.08;;;14.70;1.00;;;;;;5132914;27;20042;-71
2023/04/30 09:43:19;;;;;;;2.40;1.10;;;14.50;1.00;;;;;;5139507;27;20161;-72
2023/04/30 09:45:47;;;;;;;3.00;1.13;;;14.40;1.00;;;;;;5154945;27;20468;-72
2023/04/30 09:48:31;;;;;;;3.40;1.10;;;14.30;1.00;;;;;;5144082;27;20130;-72
2023/04/30 09:50:57;;;;;;;3.20;1.27;;;14.30;1.00;;;;;;5115786;27;20066;-71
2023/04/30 09:53:23;;;;;;;2.55;1.20;;;14.30;1.00;;;;;;5125533;27;20657;-72
2023/04/30 09:55:50;;;;;;;3.33;1.20;;;14.30;19.90;;;;;;5149695;27;20050;-72
2023/04/30 09:58:17;;;;;;;3.72;1.50;;;14.70;37.90;;;;;;5133992;27;20035;-72
2023/04/30 10:00:45;;;;;;;5.13;1.75;;;14.70;2.80;;;;;;5134065;27;20039;-70
2023/04/30 10:03:12;;;;;;;2.70;1.42;;;14.40;1.00;;;;;;5135205;27;20039;-70
2023/04/30 10:05:45;;;;;;;3.17;1.40;;;14.50;1.00;;;;;;5132134;27;20099;-72
2023/04/30 10:08:29;;;;;;;4.82;1.77;;;14.50;1.00;;;;;;5139932;27;20049;-71
2023/04/30 10:11:04;;;;;;;3.40;1.40;;;14.60;1.00;;;;;;5152802;27;20099;-72
2023/04/30 10:13:49;;;;;;;3.53;1.30;;;14.50;1.00;;;;;;5144174;27;20488;-72
2023/04/30 10:16:25;;;;;;;2.85;1.05;;;14.50;1.00;;;;;;5152864;27;20039;-72
2023/04/30 10:18:53;;;;;;;4.57;1.67;;;14.60;1.00;;;;;;5141498;27;20050;-72
2023/04/30 10:21:23;;;;;;;6.05;1.50;;;14.70;1.00;;;;;;5131990;27;20174;-72
2023/04/30 10:23:50;;;;;;;4.50;1.58;;;14.70;1.00;;;;;;5133917;27;20049;-71
2023/04/30 10:26:17;;;;;;;3.08;1.27;;;14.80;1.00;;;;;;5132452;27;20096;-71
2023/04/30 10:28:44;;;;;;;3.53;1.40;;;15.00;1.00;;;;;;5141049;27;20502;-71
2023/04/30 10:31:12;;;;;;;4.95;1.70;;;15.40;1.00;;;;;;5151773;27;20039;-72
2023/04/30 10:33:48;;;;;;;6.55;1.67;;;15.60;1.00;;;;;;5145894;27;20035;-72
2023/04/30 10:36:37;;;;;;;3.55;1.20;;;15.60;1.00;;;;;;5132162;27;20039;-71
2023/04/30 10:39:04;;;;;;;5.40;1.70;;;15.70;99.90;;;;;;5142876;27;20389;-72
2023/04/30 10:41:30;;;;;;;4.00;1.52;;;15.70;1.00;;;;;;5152314;27;20122;-72
2023/04/30 10:44:00;;;;;;;5.68;1.75;;;15.80;1.00;;;;;;5127821;27;20051;-72
2023/04/30 10:46:27;;;;;;;4.80;1.70;;;15.90;1.00;;;;;;5151772;27;20446;-71
2023/04/30 10:48:54;;;;;;;4.65;1.50;;;16.00;1.00;;;;;;5144574;27;20513;-72
2023/04/30 10:51:20;;;;;;;4.82;1.50;;;16.40;1.00;;;;;;5114626;27;20049;-71
2023/04/30 10:53:49;;;;;;;4.65;1.23;;;16.60;99.90;;;;;;5132706;27;20035;-72
2023/04/30 10:56:31;;;;;;;5.00;1.60;;;16.80;99.90;;;;;;5115999;27;20038;-72
2023/04/30 10:59:01;;;;;;;2.90;1.30;;;17.00;99.90;;;;;;5152187;27;20489;-71
2023/04/30 11:01:27;;;;;;;4.03;1.40;;;17.10;99.90;;;;;;5152258;27;20046;-71
2023/04/30 11:04:10;;;;;;;4.32;1.65;;;17.20;99.90;;;;;;5127541;27;20502;-72
2023/04/30 11:06:51;;;;;;;2.92;1.50;;;17.00;99.90;;;;;;5131259;27;20065;-71
2023/04/30 11:09:17;;;;;;;3.15;1.50;;;17.30;99.90;;;;;;5131688;27;20035;-72
2023/04/30 11:11:49;;;;;;;;;;;17.30;99.90;;;;;;5131547;27;20497;-72
2023/04/30 11:14:20;;;;;;;2.83;1.40;;;17.40;99.90;;;;;;5138767;27;19922;-71
2023/04/30 11:16:50;;;;;;;3.55;1.50;;;17.30;99.90;;;;;;5151577;27;20038;-71
2023/04/30 11:19:17;;;;;;;3.30;1.40;;;17.30;99.90;;;;;;5133701;27;20119;-71
2023/04/30 11:22:02;;;;;;;3.00;1.42;;;17.40;99.90;;;;;;5132482;27;20095;-72
2023/04/30 11:24:48;;;;;;;3.35;1.60;;;17.60;99.90;;;;;;5134589;27;20043;-72
2023/04/30 11:27:19;;;;;;;3.83;1.27;;;17.60;99.90;;;;;;5114250;27;20111;-71
2023/04/30 11:29:46;;;;;;;4.57;1.52;;;17.70;99.90;;;;;;5131243;27;20854;-72
2023/04/30 11:32:12;;;;;;;2.83;1.33;;;17.80;99.90;;;;;;5130780;27;20046;-72
2023/04/30 11:34:41;;;;;;;2.40;1.02;;;18.00;99.90;;;;;;5142837;27;20039;-72
2023/04/30 11:37:17;;;;;;;2.08;1.25;;;18.10;99.90;;;;;;5132132;27;20395;-71
2023/04/30 11:39:44;;;;;;;4.82;1.50;;;18.30;99.90;;;;;;5137461;27;20103;-72
2023/04/30 11:42:15;;;;;;;3.47;1.45;;;18.30;99.90;;;;;;5150631;27;20508;-71
2023/04/30 11:44:41;;;;;;;4.28;1.40;;;18.30;99.90;;;;;;5136708;27;20113;-71
2023/04/30 11:47:07;;;;;;;;;;;18.20;99.90;;;;;;5151629;27;20168;-72
2023/04/30 11:49:32;;;;;;;3.30;1.42;;;18.40;99.90;;;;;;5146608;27;19923;-72
2023/04/30 11:51:58;;;;;;;;;;;18.50;99.90;;;;;;5131316;27;20118;-72
2023/04/30 11:54:24;;;;;;;3.60;1.27;;;18.80;99.90;;;;;;5145183;27;19922;-72
2023/04/30 11:56:49;;;;;;;2.38;1.10;;;18.50;99.90;;;;;;5130407;27;20050;-72
2023/04/30 11:59:16;;;;;;;;;;;18.50;99.90;;;;;;5117461;27;20070;-73
2023/04/30 12:01:42;;;;;;;1.88;1.10;;;18.60;99.90;;;;;;5130344;27;19919;-73
2023/04/30 12:04:08;;;;;;;1.35;1.00;;;18.60;99.90;;;;;;5112955;28;20461;-72
2023/04/30 12:06:34;;;;;;;;;;;18.60;99.90;;;;;;5150169;27;20066;-72
2023/04/30 12:09:07;;;;;;;2.85;1.20;;;18.60;99.90;;;;;;5151024;27;19918;-72
2023/04/30 12:11:34;;;;;;;1.90;0.90;;;18.40;99.90;;;;;;5132034;27;20053;-71
2023/04/30 12:14:09;;;;;;;3.03;1.23;;;18.50;99.90;;;;;;5145570;27;20050;-72
2023/04/30 12:16:50;;;;;;;1.85;1.08;;;18.60;99.90;;;;;;5149755;27;20042;-72
2023/04/30 12:19:18;;;;;;;1.80;1.10;;;18.60;99.90;;;;;;5145741;27;20043;-71
2023/04/30 12:21:46;;;;;;;1.30;0.93;;;18.70;99.90;;;;;;5130713;27;20142;-72
2023/04/30 12:24:16;;;;;;;2.00;1.00;;;18.70;99.90;;;;;;5130660;27;20504;-72
2023/04/30 12:26:42;;;;;;;2.70;1.08;;;18.80;99.90;;;;;;5130774;27;20041;-72
2023/04/30 12:29:18;;;;;;;1.27;0.90;;;18.90;99.90;;;;;;5131644;27;20429;-71
2023/04/30 12:31:47;;;;;;;1.40;0.80;;;18.70;99.90;;;;;;5131268;27;20039;-72
2023/04/30 12:34:14;;;;;;;1.85;1.00;;;18.80;99.90;;;;;;5145098;27;20129;-71
2023/04/30 12:36:43;;;;;;;2.80;1.40;;;18.70;99.90;;;;;;5117399;28;20043;-72
2023/04/30 12:39:11;;;;;;;2.05;1.10;;;18.60;99.90;;;;;;5130288;28;20442;-71
2023/04/30 12:41:42;;;;;;;2.38;1.35;;;18.80;99.90;;;;;;5143545;27;20493;-72
2023/04/30 12:44:19;;;;;;;3.15;1.65;;;18.90;99.90;;;;;;5138683;27;20543;-72
2023/04/30 12:46:46;;;;;;;2.80;1.65;;;19.10;99.90;;;;;;5134549;27;20098;-71
2023/04/30 12:49:24;;;;;;;4.20;1.70;;;19.20;99.90;;;;;;5130112;27;20035;-72
2023/04/30 12:51:50;;;;;;;4.78;1.70;;;18.80;99.90;;;;;;5145651;27;20099;-71
2023/04/30 12:54:26;;;;;;;;;;;18.70;99.90;;;;;;5138174;27;20035;-71
2023/04/30 12:57:02;;;;;;;3.17;1.60;;;18.90;99.90;;;;;;5148784;27;19915;-72
2023/04/30 12:59:32;;;;;;;3.10;1.30;;;18.90;99.90;;;;;;5154652;27;20046;-70
2023/04/30 13:02:09;;;;;;;1.50;1.00;;;18.90;99.90;;;;;;5138780;27;20047;-71